PILOTS ONLINE: 409    ATC ONLINE: 95

KGKY

Arlington Municipal Airport

Location

City Arlington
Country  United States
Latitude 32° 39' 50" N
Longitude 97° 5' 39" W
Elevation 628 ft
Type Small Airport

Map

Weather

METAR
2014/09/21 01:53
KGKY 210153Z AUTO 13003KT 10SM CLR 27/16 A2997 RMK AO2 SLP141 T02720161
TAF
2014/09/20 21:06
TAF 
      AMD KGKY 202103Z 2021/2118 14009KT P6SM SCT040 
     FM210100 VRB03KT P6SM FEW080 
     FM211600 06003KT P6SM SCT070

Runways

16/34 6080 ft / 100 ft

Outbound flights

Callsign Flying to Pilot ATD/STD ETA Aircraft

Inbound flights

Callsign Flying from Pilot ATD ETA Aircraft